Stad Amsterdam — PECA — position and weather

sailwx.info

Track history (hours):
 
Tides and Currents Weather Stations Pressure Air Temp Water Temp Dewpoint Dewpoint Depression Visibility Wind Speed Wind Dir Waves Ship Positions

Stad Amsterdam (Netherlands)

Ship's website: http://www.stadamsterdam.com/content/home/index.xml

Last reported at 2018-Sep-17 11:58 UTC. Time now 2018-Sep-19 02:54 UTC.
Position N 38°55' E 001°38'.

Length 76 m; beam 10 m.

Type: Sailing vessel. MMSI: 246494000.

Date/timePositionNaut miles runAvg speedWind from/ knotsBaromVisibWave heightAir tempDewpointWater temp
2018-Sep-17 11:58N 38°55' E 001°38'4 8.0
2018-Sep-17 11:28N 38°54' E 001°33'4 8.1
2018-Sep-17 11:02N 38°54' E 001°28'0 8.4
2018-Sep-17 11:00N 38°54' E 001°28'1 3.0
2018-Sep-17 10:30N 38°55' E 001°26'0 0.0
2018-Sep-17 10:00N 38°55' E 001°26'0 0.0
2018-Sep-17 09:30N 38°55' E 001°26'0 0.0
2018-Sep-17 09:00N 38°55' E 001°26'0 0.1
2018-Sep-17 08:27N 38°55' E 001°26'0 0.5
2018-Sep-17 08:02N 38°55' E 001°26'0 0.0
2018-Sep-17 07:59N 38°55' E 001°26'0 0.0
2018-Sep-17 07:23N 38°55' E 001°26'0 0.0
2018-Sep-17 07:02N 38°55' E 001°26'0 0.1
2018-Sep-17 06:59N 38°55' E 001°26'0 0.0
2018-Sep-17 06:29N 38°55' E 001°26'0 0.0
2018-Sep-17 06:02N 38°55' E 001°26'0 0.0
2018-Sep-17 05:59N 38°55' E 001°26'0 0.0
2018-Sep-17 05:29N 38°55' E 001°26'0 0.0
2018-Sep-17 05:02N 38°55' E 001°26'0 0.0
2018-Sep-17 04:59N 38°55' E 001°26'0 0.0
2018-Sep-17 04:29N 38°55' E 001°26'0 0.0
2018-Sep-17 04:02N 38°55' E 001°26'0 0.0
2018-Sep-17 03:59N 38°55' E 001°26'0 0.0
2018-Sep-17 03:29N 38°55' E 001°26'0 0.0
2018-Sep-17 03:02N 38°55' E 001°26'0 0.0
2018-Sep-17 02:59N 38°55' E 001°26'0 0.0
2018-Sep-17 02:29N 38°55' E 001°26'0 0.0
2018-Sep-17 02:02N 38°55' E 001°26'0 0.0
2018-Sep-17 01:56N 38°55' E 001°26'0 0.0
2018-Sep-17 01:29N 38°55' E 001°26'0 0.0
2018-Sep-17 01:02N 38°55' E 001°26'0 0.1
2018-Sep-17 00:59N 38°55' E 001°26'0 0.0
2018-Sep-17 00:29N 38°55' E 001°26'0 0.0
2018-Sep-17 00:02N 38°55' E 001°26'0 0.0
2018-Sep-16 23:59N 38°55' E 001°26'0 0.0
2018-Sep-16 23:29N 38°55' E 001°26'0 0.0
2018-Sep-16 23:02N 38°55' E 001°26'0 0.0
2018-Sep-16 22:53N 38°55' E 001°26'0 0.0
2018-Sep-16 22:29N 38°55' E 001°26'0 0.0
2018-Sep-16 22:02N 38°55' E 001°26'0 0.0
2018-Sep-16 21:56N 38°55' E 001°26'0 0.0
2018-Sep-16 21:29N 38°55' E 001°26'0 0.0
2018-Sep-16 21:02N 38°55' E 001°26'0 0.1
2018-Sep-16 20:59N 38°55' E 001°26'0 0.0
2018-Sep-16 20:26N 38°55' E 001°26'0 0.0
2018-Sep-16 20:02N 38°55' E 001°26'0 0.0
2018-Sep-16 19:53N 38°55' E 001°26'0 0.0
2018-Sep-16 19:29N 38°55' E 001°26'0 0.0
2018-Sep-16 18:59N 38°55' E 001°26'0 0.0
2018-Sep-16 18:29N 38°55' E 001°26'0 0.0
2018-Sep-16 18:02N 38°55' E 001°26'0 0.1
2018-Sep-16 17:59N 38°55' E 001°26'0 0.0
2018-Sep-16 17:26N 38°55' E 001°26'0 0.0
2018-Sep-16 17:02N 38°55' E 001°26'0 0.0
2018-Sep-16 16:59N 38°55' E 001°26'0 0.0
2018-Sep-16 16:29N 38°55' E 001°26'0 0.0
2018-Sep-16 15:59N 38°55' E 001°26'0 0.0
2018-Sep-16 15:29N 38°55' E 001°26'0 0.0
2018-Sep-16 15:02N 38°55' E 001°26'0 0.0
2018-Sep-16 14:59N 38°55' E 001°26'1 2.8
2018-Sep-16 14:29N 38°53' E 001°27'7 0.3
2018-Sep-15 11:17N 38°46' E 001°23'1 4.6
2018-Sep-15 11:03N 38°47' E 001°23'1 7.1
2018-Sep-15 10:53N 38°48' E 001°24'3 7.6
2018-Sep-15 10:30N 38°50' E 001°26'4 8.1
2018-Sep-15 10:01N 38°55' E 001°27'0 0.5
2018-Sep-15 09:30N 38°55' E 001°26'0 0.0
2018-Sep-15 09:03N 38°55' E 001°26'0 0.0
2018-Sep-15 09:00N 38°55' E 001°26'0 0.0
2018-Sep-15 08:27N 38°55' E 001°26'0 0.0
2018-Sep-15 08:03N 38°55' E 001°26'0 0.0
2018-Sep-15 08:00N 38°55' E 001°26'0 0.0
2018-Sep-15 07:30N 38°55' E 001°26'0 0.0
2018-Sep-15 07:03N 38°55' E 001°26'0 0.0
2018-Sep-15 07:00N 38°55' E 001°26'0 0.1
2018-Sep-15 06:20N 38°55' E 001°26'0 0.0
2018-Sep-15 06:02N 38°55' E 001°26'0 0.0
2018-Sep-15 05:59N 38°55' E 001°26'0 0.0
2018-Sep-15 05:29N 38°55' E 001°26'0 0.0
2018-Sep-15 05:02N 38°55' E 001°26'0 0.0
2018-Sep-15 04:59N 38°55' E 001°26'0 0.0
2018-Sep-15 04:29N 38°55' E 001°26'0 0.0
2018-Sep-15 04:02N 38°55' E 001°26'0 0.0
2018-Sep-15 03:59N 38°55' E 001°26'0 0.0
2018-Sep-15 03:29N 38°55' E 001°26'0 0.0
2018-Sep-15 03:02N 38°55' E 001°26'0 0.0
2018-Sep-15 02:59N 38°55' E 001°26'0 0.0
2018-Sep-15 02:29N 38°55' E 001°26'0 0.0
2018-Sep-15 02:02N 38°55' E 001°26'0 0.0
2018-Sep-15 01:59N 38°55' E 001°26'0 0.0
2018-Sep-15 01:29N 38°55' E 001°26'0 0.0
2018-Sep-15 01:02N 38°55' E 001°26'0 0.0
2018-Sep-15 00:59N 38°55' E 001°26'0 0.0
2018-Sep-15 00:29N 38°55' E 001°26'0 0.0
2018-Sep-15 00:02N 38°55' E 001°26'0 0.0
2018-Sep-14 23:56N 38°55' E 001°26'0 0.0
2018-Sep-14 23:29N 38°55' E 001°26'0 0.0
2018-Sep-14 23:02N 38°55' E 001°26'0 0.1
2018-Sep-14 22:59N 38°55' E 001°26'0 0.0
2018-Sep-14 22:26N 38°55' E 001°26'0 0.0
2018-Sep-14 22:02N 38°55' E 001°26'0 0.1
2018-Sep-14 21:59N 38°55' E 001°26'0 0.0
2018-Sep-14 21:29N 38°55' E 001°26'0 0.0
2018-Sep-14 21:02N 38°55' E 001°26'0 0.0
2018-Sep-14 20:59N 38°55' E 001°26'0 0.0
2018-Sep-14 20:29N 38°55' E 001°26'0 0.0
2018-Sep-14 20:02N 38°55' E 001°26'0 0.0
2018-Sep-14 19:59N 38°55' E 001°26'0 0.0
2018-Sep-14 19:29N 38°55' E 001°26'0 0.0
2018-Sep-14 19:02N 38°55' E 001°26'0 0.0
2018-Sep-14 18:59N 38°55' E 001°26'0 0.0
2018-Sep-14 18:29N 38°55' E 001°26'0 0.0
2018-Sep-14 18:02N 38°55' E 001°26'0 0.1
2018-Sep-14 17:59N 38°55' E 001°26'0 0.0
2018-Sep-14 17:29N 38°55' E 001°26'0 0.0
2018-Sep-14 17:02N 38°55' E 001°26'0 0.1
2018-Sep-14 16:59N 38°55' E 001°26'0 0.0
2018-Sep-14 16:29N 38°55' E 001°26'0 0.0
2018-Sep-14 16:02N 38°55' E 001°26'0 0.0
2018-Sep-14 15:59N 38°55' E 001°26'0 0.0
2018-Sep-14 15:29N 38°55' E 001°26'0 0.0
2018-Sep-14 15:02N 38°55' E 001°26'0 0.1
2018-Sep-14 14:56N 38°55' E 001°26'0 0.0
2018-Sep-14 14:29N 38°55' E 001°26'0 0.0
2018-Sep-14 13:59N 38°55' E 001°26'0 0.0
2018-Sep-14 13:29N 38°55' E 001°26'0 0.0
2018-Sep-14 12:53N 38°55' E 001°26'0 0.0
2018-Sep-14 12:29N 38°55' E 001°26'0 0.0
2018-Sep-14 12:02N 38°55' E 001°26'0 0.0
2018-Sep-14 11:59N 38°55' E 001°26'0 0.0
2018-Sep-14 11:29N 38°55' E 001°26'0 0.0
2018-Sep-14 11:01N 38°55' E 001°26'0 0.0
2018-Sep-14 10:58N 38°55' E 001°26'0 0.1
2018-Sep-14 10:28N 38°55' E 001°26'2 4.9
2018-Sep-14 10:01N 38°53' E 001°27'0 3.1
2018-Sep-14 10:00N 38°52' E 001°27'8 0.9
2018-Sep-14 01:35N 38°45' E 001°26'0 0.0
2018-Sep-14 01:29N 38°45' E 001°26'88 2.5
2018-Sep-12 14:56N 39°27' W 000°14'3 7.2
2018-Sep-12 14:30N 39°28' W 000°18'2 0.1
2018-Sep-11 15:48N 39°28' W 000°20'1 3.2
2018-Sep-11 15:31N 39°28' W 000°19'5 4.8
2018-Sep-11 14:24N 39°25' W 000°13'3 4.2
2018-Sep-11 13:41N 39°27' W 000°15'1 3.9
2018-Sep-11 13:30N 39°28' W 000°16'2 4.5
2018-Sep-11 13:03N 39°28' W 000°19'0 5.2
2018-Sep-11 13:00N 39°28' W 000°19'0 0.0
2018-Sep-10 15:09N 39°28' W 000°19'1 5.5
2018-Sep-10 15:02N 39°28' W 000°19'0 3.9
2018-Sep-10 15:00N 39°28' W 000°19'3 1.2
2018-Sep-10 12:30N 39°27' W 000°15'2 5.2
2018-Sep-10 12:03N 39°28' W 000°17'0 3.9
2018-Sep-10 12:00N 39°28' W 000°18'1 0.1
2018-Sep-09 15:04N 39°28' W 000°19'1 5.1
2018-Sep-09 14:57N 39°28' W 000°19'8 3.3
2018-Sep-09 12:38N 39°31' W 000°10'1 4.2
2018-Sep-09 12:28N 39°30' W 000°10'2 3.4
2018-Sep-09 11:59N 39°29' W 000°12'2 4.7
2018-Sep-09 11:30N 39°29' W 000°15'2 5.3
2018-Sep-09 11:03N 39°28' W 000°18'0 5.4
2018-Sep-09 11:00N 39°28' W 000°18'  
Track history (hours):
 
Tides and Currents Weather Stations Pressure Air Temp Water Temp Dewpoint Dewpoint Depression Visibility Wind Speed Wind Dir Waves Ship Positions

Stad Amsterdam (Netherlands)

Ship's website: http://www.stadamsterdam.com/content/home/index.xml

Last reported at 2018-Sep-17 11:58 UTC. Time now 2018-Sep-19 02:54 UTC.
Position N 38°55' E 001°38'.

Length 76 m; beam 10 m.

Type: Sailing vessel. MMSI: 246494000.

Date/timePositionNaut miles runAvg speedWind from/ knotsBaromVisibWave heightAir tempDewpointWater temp
2018-Sep-17 11:58N 38°55' E 001°38'4 8.0
2018-Sep-17 11:28N 38°54' E 001°33'4 8.1
2018-Sep-17 11:02N 38°54' E 001°28'0 8.4
2018-Sep-17 11:00N 38°54' E 001°28'1 3.0
2018-Sep-17 10:30N 38°55' E 001°26'0 0.0
2018-Sep-17 10:00N 38°55' E 001°26'0 0.0
2018-Sep-17 09:30N 38°55' E 001°26'0 0.0
2018-Sep-17 09:00N 38°55' E 001°26'0 0.1
2018-Sep-17 08:27N 38°55' E 001°26'0 0.5
2018-Sep-17 08:02N 38°55' E 001°26'0 0.0
2018-Sep-17 07:59N 38°55' E 001°26'0 0.0
2018-Sep-17 07:23N 38°55' E 001°26'0 0.0
2018-Sep-17 07:02N 38°55' E 001°26'0 0.1
2018-Sep-17 06:59N 38°55' E 001°26'0 0.0
2018-Sep-17 06:29N 38°55' E 001°26'0 0.0
2018-Sep-17 06:02N 38°55' E 001°26'0 0.0
2018-Sep-17 05:59N 38°55' E 001°26'0 0.0
2018-Sep-17 05:29N 38°55' E 001°26'0 0.0
2018-Sep-17 05:02N 38°55' E 001°26'0 0.0
2018-Sep-17 04:59N 38°55' E 001°26'0 0.0
2018-Sep-17 04:29N 38°55' E 001°26'0 0.0
2018-Sep-17 04:02N 38°55' E 001°26'0 0.0
2018-Sep-17 03:59N 38°55' E 001°26'0 0.0
2018-Sep-17 03:29N 38°55' E 001°26'0 0.0
2018-Sep-17 03:02N 38°55' E 001°26'0 0.0
2018-Sep-17 02:59N 38°55' E 001°26'0 0.0
2018-Sep-17 02:29N 38°55' E 001°26'0 0.0
2018-Sep-17 02:02N 38°55' E 001°26'0 0.0
2018-Sep-17 01:56N 38°55' E 001°26'0 0.0
2018-Sep-17 01:29N 38°55' E 001°26'0 0.0
2018-Sep-17 01:02N 38°55' E 001°26'0 0.1
2018-Sep-17 00:59N 38°55' E 001°26'0 0.0
2018-Sep-17 00:29N 38°55' E 001°26'0 0.0
2018-Sep-17 00:02N 38°55' E 001°26'0 0.0
2018-Sep-16 23:59N 38°55' E 001°26'0 0.0
2018-Sep-16 23:29N 38°55' E 001°26'0 0.0
2018-Sep-16 23:02N 38°55' E 001°26'0 0.0
2018-Sep-16 22:53N 38°55' E 001°26'0 0.0
2018-Sep-16 22:29N 38°55' E 001°26'0 0.0
2018-Sep-16 22:02N 38°55' E 001°26'0 0.0
2018-Sep-16 21:56N 38°55' E 001°26'0 0.0
2018-Sep-16 21:29N 38°55' E 001°26'0 0.0
2018-Sep-16 21:02N 38°55' E 001°26'0 0.1
2018-Sep-16 20:59N 38°55' E 001°26'0 0.0
2018-Sep-16 20:26N 38°55' E 001°26'0 0.0
2018-Sep-16 20:02N 38°55' E 001°26'0 0.0
2018-Sep-16 19:53N 38°55' E 001°26'0 0.0
2018-Sep-16 19:29N 38°55' E 001°26'0 0.0
2018-Sep-16 18:59N 38°55' E 001°26'0 0.0
2018-Sep-16 18:29N 38°55' E 001°26'0 0.0
2018-Sep-16 18:02N 38°55' E 001°26'0 0.1
2018-Sep-16 17:59N 38°55' E 001°26'0 0.0
2018-Sep-16 17:26N 38°55' E 001°26'0 0.0
2018-Sep-16 17:02N 38°55' E 001°26'0 0.0
2018-Sep-16 16:59N 38°55' E 001°26'0 0.0
2018-Sep-16 16:29N 38°55' E 001°26'0 0.0
2018-Sep-16 15:59N 38°55' E 001°26'0 0.0
2018-Sep-16 15:29N 38°55' E 001°26'0 0.0
2018-Sep-16 15:02N 38°55' E 001°26'0 0.0
2018-Sep-16 14:59N 38°55' E 001°26'1 2.8
2018-Sep-16 14:29N 38°53' E 001°27'7 0.3
2018-Sep-15 11:17N 38°46' E 001°23'1 4.6
2018-Sep-15 11:03N 38°47' E 001°23'1 7.1
2018-Sep-15 10:53N 38°48' E 001°24'3 7.6
2018-Sep-15 10:30N 38°50' E 001°26'4 8.1
2018-Sep-15 10:01N 38°55' E 001°27'0 0.5
2018-Sep-15 09:30N 38°55' E 001°26'0 0.0
2018-Sep-15 09:03N 38°55' E 001°26'0 0.0
2018-Sep-15 09:00N 38°55' E 001°26'0 0.0
2018-Sep-15 08:27N 38°55' E 001°26'0 0.0
2018-Sep-15 08:03N 38°55' E 001°26'0 0.0
2018-Sep-15 08:00N 38°55' E 001°26'0 0.0
2018-Sep-15 07:30N 38°55' E 001°26'0 0.0
2018-Sep-15 07:03N 38°55' E 001°26'0 0.0
2018-Sep-15 07:00N 38°55' E 001°26'0 0.1
2018-Sep-15 06:20N 38°55' E 001°26'0 0.0
2018-Sep-15 06:02N 38°55' E 001°26'0 0.0
2018-Sep-15 05:59N 38°55' E 001°26'0 0.0
2018-Sep-15 05:29N 38°55' E 001°26'0 0.0
2018-Sep-15 05:02N 38°55' E 001°26'0 0.0
2018-Sep-15 04:59N 38°55' E 001°26'0 0.0
2018-Sep-15 04:29N 38°55' E 001°26'0 0.0
2018-Sep-15 04:02N 38°55' E 001°26'0 0.0
2018-Sep-15 03:59N 38°55' E 001°26'0 0.0
2018-Sep-15 03:29N 38°55' E 001°26'0 0.0
2018-Sep-15 03:02N 38°55' E 001°26'0 0.0
2018-Sep-15 02:59N 38°55' E 001°26'0 0.0
2018-Sep-15 02:29N 38°55' E 001°26'0 0.0
2018-Sep-15 02:02N 38°55' E 001°26'0 0.0
2018-Sep-15 01:59N 38°55' E 001°26'0 0.0
2018-Sep-15 01:29N 38°55' E 001°26'0 0.0
2018-Sep-15 01:02N 38°55' E 001°26'0 0.0
2018-Sep-15 00:59N 38°55' E 001°26'0 0.0
2018-Sep-15 00:29N 38°55' E 001°26'0 0.0
2018-Sep-15 00:02N 38°55' E 001°26'0 0.0
2018-Sep-14 23:56N 38°55' E 001°26'0 0.0
2018-Sep-14 23:29N 38°55' E 001°26'0 0.0
2018-Sep-14 23:02N 38°55' E 001°26'0 0.1
2018-Sep-14 22:59N 38°55' E 001°26'0 0.0
2018-Sep-14 22:26N 38°55' E 001°26'0 0.0
2018-Sep-14 22:02N 38°55' E 001°26'0 0.1
2018-Sep-14 21:59N 38°55' E 001°26'0 0.0
2018-Sep-14 21:29N 38°55' E 001°26'0 0.0
2018-Sep-14 21:02N 38°55' E 001°26'0 0.0
2018-Sep-14 20:59N 38°55' E 001°26'0 0.0
2018-Sep-14 20:29N 38°55' E 001°26'0 0.0
2018-Sep-14 20:02N 38°55' E 001°26'0 0.0
2018-Sep-14 19:59N 38°55' E 001°26'0 0.0
2018-Sep-14 19:29N 38°55' E 001°26'0 0.0
2018-Sep-14 19:02N 38°55' E 001°26'0 0.0
2018-Sep-14 18:59N 38°55' E 001°26'0 0.0
2018-Sep-14 18:29N 38°55' E 001°26'0 0.0
2018-Sep-14 18:02N 38°55' E 001°26'0 0.1
2018-Sep-14 17:59N 38°55' E 001°26'0 0.0
2018-Sep-14 17:29N 38°55' E 001°26'0 0.0
2018-Sep-14 17:02N 38°55' E 001°26'0 0.1
2018-Sep-14 16:59N 38°55' E 001°26'0 0.0
2018-Sep-14 16:29N 38°55' E 001°26'0 0.0
2018-Sep-14 16:02N 38°55' E 001°26'0 0.0
2018-Sep-14 15:59N 38°55' E 001°26'0 0.0
2018-Sep-14 15:29N 38°55' E 001°26'0 0.0
2018-Sep-14 15:02N 38°55' E 001°26'0 0.1
2018-Sep-14 14:56N 38°55' E 001°26'0 0.0
2018-Sep-14 14:29N 38°55' E 001°26'0 0.0
2018-Sep-14 13:59N 38°55' E 001°26'0 0.0
2018-Sep-14 13:29N 38°55' E 001°26'0 0.0
2018-Sep-14 12:53N 38°55' E 001°26'0 0.0
2018-Sep-14 12:29N 38°55' E 001°26'0 0.0
2018-Sep-14 12:02N 38°55' E 001°26'0 0.0
2018-Sep-14 11:59N 38°55' E 001°26'0 0.0
2018-Sep-14 11:29N 38°55' E 001°26'0 0.0
2018-Sep-14 11:01N 38°55' E 001°26'0 0.0
2018-Sep-14 10:58N 38°55' E 001°26'0 0.1
2018-Sep-14 10:28N 38°55' E 001°26'2 4.9
2018-Sep-14 10:01N 38°53' E 001°27'0 3.1
2018-Sep-14 10:00N 38°52' E 001°27'8 0.9
2018-Sep-14 01:35N 38°45' E 001°26'0 0.0
2018-Sep-14 01:29N 38°45' E 001°26'88 2.5
2018-Sep-12 14:56N 39°27' W 000°14'3 7.2
2018-Sep-12 14:30N 39°28' W 000°18'2 0.1
2018-Sep-11 15:48N 39°28' W 000°20'1 3.2
2018-Sep-11 15:31N 39°28' W 000°19'5 4.8
2018-Sep-11 14:24N 39°25' W 000°13'3 4.2
2018-Sep-11 13:41N 39°27' W 000°15'1 3.9
2018-Sep-11 13:30N 39°28' W 000°16'2 4.5
2018-Sep-11 13:03N 39°28' W 000°19'0 5.2
2018-Sep-11 13:00N 39°28' W 000°19'0 0.0
2018-Sep-10 15:09N 39°28' W 000°19'1 5.5
2018-Sep-10 15:02N 39°28' W 000°19'0 3.9
2018-Sep-10 15:00N 39°28' W 000°19'3 1.2
2018-Sep-10 12:30N 39°27' W 000°15'2 5.2
2018-Sep-10 12:03N 39°28' W 000°17'0 3.9
2018-Sep-10 12:00N 39°28' W 000°18'1 0.1
2018-Sep-09 15:04N 39°28' W 000°19'1 5.1
2018-Sep-09 14:57N 39°28' W 000°19'8 3.3
2018-Sep-09 12:38N 39°31' W 000°10'1 4.2
2018-Sep-09 12:28N 39°30' W 000°10'2 3.4
2018-Sep-09 11:59N 39°29' W 000°12'2 4.7
2018-Sep-09 11:30N 39°29' W 000°15'2 5.3
2018-Sep-09 11:03N 39°28' W 000°18'0 5.4
2018-Sep-09 11:00N 39°28' W 000°18'  

Dump ship's entire track history